Time;durP1;ratioP1;P1;durP2;ratioP2;P2;SDS_P1;SDS_P2;PMS_P1;PMS_P2;Temp;Humidity;BMP_temperature;BMP_pressure;BME280_temperature;BME280_humidity;BME280_pressure;Samples;Min_cycle;Max_cycle;Signal;HPM_P1;HPM_P2
2020/12/09 00:01:09;;;;;;;58.35;26.75;;;-0.70;99.90;;;;;;5074527;28;20386;-83
2020/12/09 00:03:35;;;;;;;52.97;23.40;;;-0.80;99.90;;;;;;5075395;28;20031;-84
2020/12/09 00:06:01;;;;;;;56.50;21.98;;;-0.80;99.90;;;;;;5074181;28;20107;-84
2020/12/09 00:08:26;;;;;;;48.30;20.77;;;-0.80;99.90;;;;;;5074338;28;20485;-83
2020/12/09 00:10:52;;;;;;;51.67;22.17;;;-0.80;99.90;;;;;;5073990;28;20044;-83
2020/12/09 00:13:17;;;;;;;57.33;24.90;;;-0.80;99.90;;;;;;5075149;28;20032;-84
2020/12/09 00:15:43;;;;;;;48.60;22.48;;;-0.80;99.90;;;;;;5073412;28;20397;-84
2020/12/09 00:18:09;;;;;;;54.25;23.20;;;-0.90;99.90;;;;;;5072731;28;20036;-83
2020/12/09 00:20:35;;;;;;;55.03;22.38;;;-0.90;99.90;;;;;;5074279;28;20035;-83
2020/12/09 00:23:01;;;;;;;55.22;24.48;;;-0.90;99.90;;;;;;5072415;28;20016;-84
2020/12/09 00:25:26;;;;;;;49.38;23.80;;;-0.90;99.90;;;;;;5074480;28;20031;-84
2020/12/09 00:27:52;;;;;;;55.00;24.98;;;-1.00;99.90;;;;;;5072715;28;20025;-84
2020/12/09 00:30:18;;;;;;;51.85;22.15;;;-1.00;99.90;;;;;;5072621;28;20500;-84
2020/12/09 00:32:44;;;;;;;57.33;25.00;;;-1.00;99.90;;;;;;5073599;28;20020;-84
2020/12/09 00:35:09;;;;;;;53.05;22.58;;;-1.00;99.90;;;;;;5073536;28;20378;-83
2020/12/09 00:37:35;;;;;;;51.30;24.98;;;-1.00;99.90;;;;;;5073723;28;20030;-84
2020/12/09 00:40:02;;;;;;;50.40;21.95;;;-1.00;99.90;;;;;;5072190;28;20082;-84
2020/12/09 00:42:31;;;;;;;55.78;22.63;;;-1.00;99.90;;;;;;5073381;28;20060;-84
2020/12/09 00:44:56;;;;;;;48.92;22.13;;;-1.00;99.90;;;;;;5074122;28;20052;-84
2020/12/09 00:47:22;;;;;;;59.58;24.92;;;-1.00;99.90;;;;;;5072325;28;20059;-84
2020/12/09 00:52:31;;;;;;;53.90;23.13;;;-1.00;99.90;;;;;;5073572;28;20043;-84
2020/12/09 00:54:57;;;;;;;50.95;22.50;;;-0.90;99.90;;;;;;5074004;28;20025;-84
2020/12/09 00:57:23;;;;;;;56.80;21.63;;;-1.00;99.90;;;;;;5073474;28;20025;-84
2020/12/09 00:59:49;;;;;;;54.30;23.13;;;-0.90;99.90;;;;;;5071754;28;20504;-84
2020/12/09 01:02:14;;;;;;;50.92;24.10;;;-0.90;99.90;;;;;;5074059;28;20024;-84
2020/12/09 01:04:40;;;;;;;46.17;20.52;;;-0.90;99.90;;;;;;5071815;28;20035;-83
2020/12/09 01:07:06;;;;;;;50.97;22.50;;;-0.90;99.90;;;;;;5072524;28;20410;-83
2020/12/09 01:09:31;;;;;;;54.33;25.10;;;-0.90;99.90;;;;;;5072934;28;20477;-84
2020/12/09 01:12:02;;;;;;;50.80;22.05;;;-0.80;99.90;;;;;;5073670;28;20040;-84
2020/12/09 01:14:27;;;;;;;48.05;22.38;;;-0.80;99.90;;;;;;5075654;28;20029;-83
2020/12/09 01:16:53;;;;;;;47.45;21.48;;;-0.90;99.90;;;;;;5073080;28;20024;-84
2020/12/09 01:19:19;;;;;;;52.00;23.20;;;-0.90;99.90;;;;;;5071589;28;20398;-84
2020/12/09 01:21:45;;;;;;;39.72;21.70;;;-0.90;99.90;;;;;;5072579;28;20074;-84
2020/12/09 01:24:13;;;;;;;49.70;23.25;;;-0.90;99.90;;;;;;5073028;28;20025;-83
2020/12/09 01:26:38;;;;;;;50.42;23.33;;;-0.90;99.90;;;;;;5072466;28;20108;-84
2020/12/09 01:29:04;;;;;;;50.28;21.88;;;-0.90;99.90;;;;;;5073356;28;20063;-84
2020/12/09 01:31:29;;;;;;;51.38;23.52;;;-0.90;99.90;;;;;;5073447;28;20048;-84
2020/12/09 01:33:55;;;;;;;52.15;23.08;;;-0.90;99.90;;;;;;5074023;28;20056;-84
2020/12/09 01:36:24;;;;;;;50.78;22.75;;;-0.90;99.90;;;;;;5072937;28;20097;-84
2020/12/09 01:38:51;;;;;;;42.75;22.33;;;-0.90;99.90;;;;;;5071403;28;20039;-83
2020/12/09 01:41:18;;;;;;;55.00;22.67;;;-0.90;99.90;;;;;;5071830;28;20028;-83
2020/12/09 01:43:45;;;;;;;53.67;24.88;;;-0.80;99.90;;;;;;5072771;28;20470;-83
2020/12/09 01:46:14;;;;;;;55.30;23.98;;;-0.90;99.90;;;;;;5072160;28;20004;-84
2020/12/09 01:48:40;;;;;;;44.17;21.95;;;-0.80;99.90;;;;;;5073858;28;20029;-84
2020/12/09 01:51:06;;;;;;;46.83;18.45;;;-0.80;99.90;;;;;;5073431;28;20031;-83
2020/12/09 01:53:32;;;;;;;47.50;22.92;;;-0.80;99.90;;;;;;5071361;28;20040;-84
2020/12/09 01:55:57;;;;;;;48.60;22.05;;;-0.80;99.90;;;;;;5074120;28;20025;-83
2020/12/09 01:58:24;;;;;;;43.20;20.83;;;-0.80;99.90;;;;;;5071040;28;20036;-84
2020/12/09 02:00:49;;;;;;;39.22;19.60;;;-0.80;99.90;;;;;;5073792;28;20361;-84
2020/12/09 02:03:15;;;;;;;45.95;19.75;;;-0.80;99.90;;;;;;5072606;28;20039;-84
2020/12/09 02:05:41;;;;;;;42.95;21.52;;;-0.80;99.90;;;;;;5072307;28;20021;-84
2020/12/09 02:08:07;;;;;;;41.28;19.20;;;-0.80;99.90;;;;;;5070541;28;20028;-83
2020/12/09 02:10:33;;;;;;;43.63;16.65;;;-0.80;99.90;;;;;;5072400;28;20127;-84
2020/12/09 02:12:58;;;;;;;36.03;17.05;;;-0.80;99.90;;;;;;5072055;28;20028;-84
2020/12/09 02:15:24;;;;;;;43.25;18.20;;;-0.80;99.90;;;;;;5072296;28;20021;-83
2020/12/09 02:17:50;;;;;;;47.40;21.23;;;-0.80;99.90;;;;;;5072344;28;20073;-83
2020/12/09 02:20:15;;;;;;;43.80;18.60;;;-0.90;99.90;;;;;;5075442;28;20107;-83
2020/12/09 02:22:51;;;;;;;35.05;16.92;;;-0.90;99.90;;;;;;5076420;28;20024;-84
2020/12/09 02:25:17;;;;;;;34.50;18.50;;;-0.90;99.90;;;;;;5076839;28;20024;-82
2020/12/09 02:27:42;;;;;;;37.17;18.35;;;-0.90;99.90;;;;;;5075047;28;20390;-84
2020/12/09 02:30:08;;;;;;;47.60;18.85;;;-0.90;99.90;;;;;;5075142;28;20016;-83
2020/12/09 02:32:34;;;;;;;48.28;19.17;;;-0.90;99.90;;;;;;5075966;28;20078;-84
2020/12/09 02:34:59;;;;;;;36.25;17.65;;;-1.00;99.90;;;;;;5075887;28;20028;-83
2020/12/09 02:37:25;;;;;;;41.08;17.60;;;-1.00;99.90;;;;;;5076520;28;20024;-84
2020/12/09 02:39:51;;;;;;;43.97;18.90;;;-1.00;99.90;;;;;;5075742;28;20079;-83
2020/12/09 02:42:16;;;;;;;33.72;17.50;;;-1.00;99.90;;;;;;5075669;28;20036;-84
2020/12/09 02:44:42;;;;;;;38.22;16.67;;;-1.00;99.90;;;;;;5075704;28;20025;-84
2020/12/09 02:47:08;;;;;;;35.47;17.45;;;-1.10;99.90;;;;;;5076410;28;20016;-84
2020/12/09 02:49:33;;;;;;;38.70;20.05;;;-1.00;99.90;;;;;;5075684;28;20035;-84
2020/12/09 02:51:59;;;;;;;48.75;19.83;;;-1.00;99.90;;;;;;5075758;28;20100;-84
2020/12/09 02:54:25;;;;;;;37.22;17.77;;;-1.00;99.90;;;;;;5075240;28;20052;-84
2020/12/09 02:56:50;;;;;;;49.53;21.20;;;-1.00;99.90;;;;;;5075568;28;20066;-84
2020/12/09 02:59:16;;;;;;;40.97;18.05;;;-1.00;99.90;;;;;;5074182;28;20123;-83
2020/12/09 03:01:42;;;;;;;37.33;18.48;;;-1.10;99.90;;;;;;5075517;28;20386;-83
2020/12/09 03:04:07;;;;;;;38.60;19.00;;;-1.10;99.90;;;;;;5075575;28;20025;-84
2020/12/09 03:06:34;;;;;;;39.65;17.77;;;-1.10;99.90;;;;;;5074744;28;20024;-83
2020/12/09 03:09:00;;;;;;;48.33;20.80;;;-1.10;99.90;;;;;;5074149;28;20028;-84
2020/12/09 03:11:25;;;;;;;37.85;18.75;;;-1.10;99.90;;;;;;5074247;28;20020;-84
2020/12/09 03:13:51;;;;;;;47.00;17.63;;;-1.10;99.90;;;;;;5074375;28;20029;-84
2020/12/09 03:16:17;;;;;;;41.58;19.50;;;-1.10;99.90;;;;;;5074172;28;20171;-83
2020/12/09 03:18:43;;;;;;;53.30;20.55;;;-1.10;99.90;;;;;;5075991;28;20051;-83
2020/12/09 03:21:08;;;;;;;46.00;18.95;;;-1.10;99.90;;;;;;5074866;28;20021;-83
2020/12/09 03:23:35;;;;;;;54.00;21.55;;;-1.20;99.90;;;;;;5074293;28;20016;-83
2020/12/09 03:26:02;;;;;;;44.35;21.25;;;-1.20;99.90;;;;;;5076711;28;20024;-83
2020/12/09 03:28:28;;;;;;;48.75;18.52;;;-1.20;99.90;;;;;;5076764;28;20063;-83
2020/12/09 03:30:54;;;;;;;43.60;21.55;;;-1.30;99.90;;;;;;5072478;28;20055;-83
2020/12/09 03:33:19;;;;;;;42.70;16.52;;;-1.30;99.90;;;;;;5075122;28;20052;-83
2020/12/09 03:35:45;;;;;;;41.72;16.83;;;-1.30;99.90;;;;;;5075637;28;20062;-83
2020/12/09 03:38:11;;;;;;;45.75;20.45;;;-1.30;99.90;;;;;;5074834;28;20032;-83
2020/12/09 03:40:36;;;;;;;40.22;17.98;;;-1.30;99.90;;;;;;5074291;28;20012;-83
2020/12/09 03:43:02;;;;;;;44.60;18.90;;;-1.40;99.90;;;;;;5074218;28;20028;-83
2020/12/09 03:45:28;;;;;;;48.25;18.15;;;-1.40;99.90;;;;;;5074934;28;20027;-83
2020/12/09 03:47:53;;;;;;;34.70;16.55;;;-1.40;99.90;;;;;;5073633;28;20055;-83
2020/12/09 03:50:19;;;;;;;40.72;17.95;;;-1.40;99.90;;;;;;5074761;28;20363;-83
2020/12/09 03:52:45;;;;;;;40.92;18.35;;;-1.50;99.90;;;;;;5074650;28;20031;-83
2020/12/09 03:55:10;;;;;;;40.20;17.20;;;-1.40;99.90;;;;;;5074611;28;20150;-83
2020/12/09 03:57:36;;;;;;;48.13;19.85;;;-1.40;99.90;;;;;;5074676;28;20017;-83
2020/12/09 04:00:03;;;;;;;45.00;18.25;;;-1.40;99.90;;;;;;5074460;28;20036;-83
2020/12/09 04:02:29;;;;;;;51.40;21.48;;;-1.50;99.90;;;;;;5074307;28;20027;-83
2020/12/09 04:04:55;;;;;;;55.17;22.90;;;-1.50;99.90;;;;;;5074625;28;20024;-83
2020/12/09 04:07:21;;;;;;;45.42;18.98;;;-1.50;99.90;;;;;;5073139;28;20097;-83
2020/12/09 04:09:46;;;;;;;50.55;20.88;;;-1.60;99.90;;;;;;5073173;28;20016;-83
2020/12/09 04:12:12;;;;;;;47.55;17.80;;;-1.60;99.90;;;;;;5073761;28;20131;-84
2020/12/09 04:14:38;;;;;;;50.03;22.38;;;-1.60;99.90;;;;;;5072946;28;20530;-84
2020/12/09 04:17:03;;;;;;;43.55;16.88;;;-1.60;99.90;;;;;;5074171;28;20031;-84
2020/12/09 04:19:29;;;;;;;49.33;20.75;;;-1.60;99.90;;;;;;5074436;28;20100;-83
2020/12/09 04:21:55;;;;;;;48.50;20.60;;;-1.70;99.90;;;;;;5073642;28;20028;-84
2020/12/09 04:24:20;;;;;;;51.97;22.33;;;-1.70;99.90;;;;;;5073099;28;20008;-84
2020/12/09 04:26:46;;;;;;;45.03;21.42;;;-1.70;99.90;;;;;;5072724;28;20395;-83
2020/12/09 04:29:12;;;;;;;54.70;24.00;;;-1.70;99.90;;;;;;5074525;28;20056;-84
2020/12/09 04:31:37;;;;;;;47.67;20.23;;;-1.70;99.90;;;;;;5073859;28;20039;-84
2020/12/09 04:34:04;;;;;;;57.90;24.83;;;-1.80;99.90;;;;;;5072720;28;20017;-82
2020/12/09 04:36:29;;;;;;;47.08;18.70;;;-1.80;99.90;;;;;;5072233;28;20016;-83
2020/12/09 04:38:56;;;;;;;52.63;21.33;;;-1.80;99.90;;;;;;5073361;28;20504;-84
2020/12/09 04:41:23;;;;;;;51.33;22.38;;;-1.80;99.90;;;;;;5072281;28;20142;-84
2020/12/09 04:43:48;;;;;;;42.25;20.15;;;-1.80;99.90;;;;;;5074824;28;20082;-84
2020/12/09 04:46:14;;;;;;;58.40;22.58;;;-1.80;99.90;;;;;;5073840;28;20029;-84
2020/12/09 04:48:45;;;;;;;61.50;23.60;;;-1.80;99.90;;;;;;5074031;28;20024;-84
2020/12/09 04:51:48;;;;;;;47.25;19.73;;;-1.80;99.90;;;;;;5053658;28;20029;-83
2020/12/09 04:54:16;;;;;;;49.30;21.75;;;-1.90;99.90;;;;;;5053626;28;20061;-84
2020/12/09 04:56:54;;;;;;;47.95;21.70;;;-1.90;99.90;;;;;;5052956;28;20039;-83
2020/12/09 04:59:24;;;;;;;66.47;23.48;;;-1.90;99.90;;;;;;5053412;28;20067;-83
2020/12/09 05:02:15;;;;;;;46.50;21.38;;;-1.90;99.90;;;;;;5052069;28;20028;-83
2020/12/09 05:04:41;;;;;;;49.45;20.30;;;-1.90;99.90;;;;;;5052826;28;20470;-85
2020/12/09 05:07:09;;;;;;;50.25;23.60;;;-2.00;99.90;;;;;;5069652;28;20068;-83
2020/12/09 05:09:45;;;;;;;49.53;20.88;;;-1.90;99.90;;;;;;5072055;28;20040;-83
2020/12/09 05:12:14;;;;;;;48.08;20.63;;;-2.00;99.90;;;;;;5074102;28;20367;-84
2020/12/09 05:14:47;;;;;;;51.75;21.05;;;-2.00;99.90;;;;;;5073003;28;20024;-83
2020/12/09 05:17:21;;;;;;;53.13;21.35;;;-1.90;99.90;;;;;;5072649;28;20509;-83
2020/12/09 05:19:48;;;;;;;57.17;22.67;;;-2.00;99.90;;;;;;5073131;28;20125;-84
2020/12/09 05:22:21;;;;;;;54.55;20.52;;;-2.00;99.90;;;;;;5071762;28;20048;-84
2020/12/09 05:24:46;;;;;;;46.85;23.88;;;-2.00;99.90;;;;;;5072462;28;20048;-83
2020/12/09 05:27:13;;;;;;;40.42;16.83;;;-2.00;99.90;;;;;;5071934;28;20461;-84
2020/12/09 05:29:47;;;;;;;46.75;19.23;;;-2.00;99.90;;;;;;5072250;28;20039;-84
2020/12/09 05:32:12;;;;;;;48.30;18.08;;;-2.00;99.90;;;;;;5071605;28;20386;-83
2020/12/09 05:34:38;;;;;;;55.63;20.58;;;-2.10;99.90;;;;;;5071724;28;20025;-83
2020/12/09 05:37:06;;;;;;;52.17;19.05;;;-2.00;99.90;;;;;;5072310;28;20024;-83
2020/12/09 05:39:48;;;;;;;52.47;19.35;;;-2.10;99.90;;;;;;5071051;28;20414;-83
2020/12/09 05:42:16;;;;;;;51.60;21.83;;;-2.10;99.90;;;;;;5072855;28;20462;-84
2020/12/09 05:44:46;;;;;;;43.60;17.88;;;-2.10;99.90;;;;;;5071971;28;20028;-83
2020/12/09 05:47:12;;;;;;;51.97;21.20;;;-2.10;99.90;;;;;;5069806;28;20024;-83
2020/12/09 05:49:39;;;;;;;41.55;18.33;;;-2.10;99.90;;;;;;5068468;28;20017;-83
2020/12/09 05:52:18;;;;;;;40.03;17.95;;;-2.10;99.90;;;;;;5072451;28;20028;-83
2020/12/09 05:54:46;;;;;;;51.05;20.60;;;-2.20;99.90;;;;;;5071431;28;20021;-83
2020/12/09 05:57:15;;;;;;;53.70;21.13;;;-2.20;99.90;;;;;;5071163;28;20027;-83
2020/12/09 05:59:42;;;;;;;35.60;15.88;;;-2.30;99.90;;;;;;5071090;28;20043;-83
2020/12/09 06:02:12;;;;;;;36.40;17.23;;;-2.30;99.90;;;;;;5071999;28;20021;-83
2020/12/09 06:04:49;;;;;;;39.90;18.45;;;-2.30;99.90;;;;;;5073064;28;20020;-83
2020/12/09 06:07:15;;;;;;;46.17;19.75;;;-2.30;99.90;;;;;;5072306;28;20024;-83
2020/12/09 06:10:12;;;;;;;49.15;16.55;;;-2.30;99.90;;;;;;5072258;28;20139;-83
2020/12/09 06:12:57;;;;;;;37.35;15.38;;;-2.40;99.90;;;;;;5076782;28;20033;-84
2020/12/09 06:15:25;;;;;;;41.97;19.00;;;-2.40;99.90;;;;;;5070900;28;20029;-83
2020/12/09 06:18:10;;;;;;;49.40;22.27;;;-2.40;99.90;;;;;;5069170;28;20024;-83
2020/12/09 06:20:37;;;;;;;38.15;17.73;;;-2.40;99.90;;;;;;5071108;28;20037;-83
2020/12/09 06:23:11;;;;;;;46.10;18.05;;;-2.50;99.90;;;;;;5072925;28;20474;-83
2020/12/09 06:25:38;;;;;;;45.83;19.45;;;-2.50;99.90;;;;;;5068574;28;20377;-83
2020/12/09 06:28:08;;;;;;;36.80;15.68;;;-2.50;99.90;;;;;;5059771;28;20032;-83
2020/12/09 06:30:33;;;;;;;47.35;18.38;;;-2.60;99.90;;;;;;5061455;28;20013;-82
2020/12/09 06:32:59;;;;;;;35.40;14.80;;;-2.60;99.90;;;;;;5051675;28;20079;-83
2020/12/09 06:35:25;;;;;;;40.22;16.80;;;-2.60;99.90;;;;;;5050458;28;20025;-82
2020/12/09 06:38:14;;;;;;;35.58;14.65;;;-2.60;99.90;;;;;;5050572;28;20019;-83
2020/12/09 06:41:08;;;;;;;42.70;15.77;;;-2.60;99.90;;;;;;5044454;28;20037;-81
2020/12/09 06:43:33;;;;;;;30.10;13.52;;;-2.60;99.90;;;;;;5051262;28;20028;-80
2020/12/09 06:45:59;;;;;;;35.50;14.40;;;-2.60;99.90;;;;;;5049774;28;20025;-81
2020/12/09 06:48:25;;;;;;;24.45;12.63;;;-2.70;99.90;;;;;;5050194;28;20024;-81
2020/12/09 06:50:51;;;;;;;37.35;14.15;;;-2.70;99.90;;;;;;5068929;28;20017;-80
2020/12/09 06:53:17;;;;;;;35.60;12.57;;;-2.70;99.90;;;;;;5069864;28;20020;-81
2020/12/09 06:55:44;;;;;;;32.20;13.48;;;-2.70;99.90;;;;;;5068920;28;20462;-80
2020/12/09 06:58:29;;;;;;;39.85;14.77;;;-2.70;99.90;;;;;;5068983;28;20394;-81
2020/12/09 07:01:05;;;;;;;42.05;16.83;;;-2.60;99.90;;;;;;5064135;28;20029;-80
2020/12/09 07:03:36;;;;;;;52.35;17.83;;;-2.60;99.90;;;;;;5064103;28;20024;-81
2020/12/09 07:06:22;;;;;;;49.40;18.88;;;-2.60;99.90;;;;;;5072867;28;20052;-81
2020/12/09 07:08:50;;;;;;;53.33;18.00;;;-2.50;99.90;;;;;;5068104;28;20025;-82
2020/12/09 07:11:16;;;;;;;35.42;16.15;;;-2.60;99.90;;;;;;5072849;28;20020;-81
2020/12/09 07:13:42;;;;;;;29.77;11.45;;;-2.70;99.90;;;;;;5075819;28;20036;-81
2020/12/09 07:16:08;;;;;;;38.78;15.30;;;-2.70;99.90;;;;;;5074351;28;20028;-80
2020/12/09 07:18:37;;;;;;;41.40;15.55;;;-2.70;99.90;;;;;;5071947;28;20485;-81
2020/12/09 07:21:06;;;;;;;50.95;18.77;;;-2.70;99.90;;;;;;5075377;28;20504;-80
2020/12/09 07:23:35;;;;;;;50.88;19.80;;;-2.60;99.90;;;;;;5075384;28;20020;-81
2020/12/09 07:26:02;;;;;;;39.50;16.42;;;-2.60;99.90;;;;;;5061430;28;20075;-81
2020/12/09 07:28:32;;;;;;;43.47;16.08;;;-2.50;99.90;;;;;;5072619;28;20028;-80
2020/12/09 07:31:05;;;;;;;45.70;19.02;;;-2.60;99.90;;;;;;5072640;28;20111;-81
2020/12/09 07:33:30;;;;;;;41.22;15.43;;;-2.60;99.90;;;;;;5072690;28;20547;-80
2020/12/09 07:36:05;;;;;;;43.95;16.52;;;-2.60;99.90;;;;;;5072901;28;20024;-81
2020/12/09 07:38:31;;;;;;;51.00;21.33;;;-2.60;99.90;;;;;;5068795;28;20029;-80
2020/12/09 07:41:01;;;;;;;40.63;17.67;;;-2.50;99.90;;;;;;5052872;28;20017;-81
2020/12/09 07:43:27;;;;;;;54.83;19.02;;;-2.50;99.90;;;;;;5052714;28;20021;-81
2020/12/09 07:46:00;;;;;;;40.88;16.13;;;-2.50;99.90;;;;;;5059507;28;20028;-80
2020/12/09 07:48:29;;;;;;;42.90;18.52;;;-2.60;99.90;;;;;;5053899;28;20040;-80
2020/12/09 07:50:56;;;;;;;39.10;16.70;;;-2.50;99.90;;;;;;5053853;28;20561;-80
2020/12/09 07:53:22;;;;;;;40.28;15.68;;;-2.60;99.90;;;;;;5053603;28;20033;-81
2020/12/09 07:55:48;;;;;;;46.45;17.48;;;-2.60;99.90;;;;;;5064791;28;20111;-81
2020/12/09 07:58:16;;;;;;;25.77;11.93;;;-2.60;99.90;;;;;;5069001;28;20448;-81
2020/12/09 08:00:46;;;;;;;40.63;17.48;;;-2.60;99.90;;;;;;5035314;28;20121;-81
2020/12/09 08:03:28;;;;;;;37.63;15.27;;;-2.70;99.90;;;;;;5069048;28;20502;-81
2020/12/09 08:05:55;;;;;;;41.40;17.15;;;-2.70;99.90;;;;;;5068620;28;20116;-81
2020/12/09 08:08:22;;;;;;;49.15;15.98;;;-2.60;99.90;;;;;;5052226;28;20049;-80
2020/12/09 08:10:51;;;;;;;40.72;16.92;;;-2.60;99.90;;;;;;5055809;28;20118;-80
2020/12/09 08:13:25;;;;;;;37.95;16.38;;;-2.60;99.90;;;;;;5052120;28;20143;-81
2020/12/09 08:15:59;;;;;;;41.15;14.80;;;-2.70;99.90;;;;;;5053053;28;20037;-80
2020/12/09 08:18:24;;;;;;;34.88;13.15;;;-2.70;99.90;;;;;;5051010;28;20558;-80
2020/12/09 08:20:52;;;;;;;35.28;14.65;;;-2.70;99.90;;;;;;5069185;28;20052;-80
2020/12/09 08:23:17;;;;;;;42.85;15.88;;;-2.70;99.90;;;;;;5068495;28;20385;-80
2020/12/09 08:25:46;;;;;;;44.45;16.77;;;-2.70;99.90;;;;;;5051580;28;20111;-81
2020/12/09 08:28:13;;;;;;;41.10;16.65;;;-2.70;99.90;;;;;;5053799;28;20021;-81
2020/12/09 08:30:42;;;;;;;47.13;18.27;;;-2.60;99.90;;;;;;5052710;28;20045;-81
2020/12/09 08:33:10;;;;;;;55.42;15.77;;;-2.60;99.90;;;;;;5068319;28;20444;-81
2020/12/09 08:35:44;;;;;;;43.28;16.38;;;-2.60;99.90;;;;;;5052924;28;20070;-80
2020/12/09 08:38:12;;;;;;;74.47;26.88;;;-2.60;99.90;;;;;;5070201;28;20485;-81
2020/12/09 08:40:38;;;;;;;60.83;25.30;;;-2.60;99.90;;;;;;5067831;28;20435;-81
2020/12/09 08:43:04;;;;;;;75.35;28.35;;;-2.50;99.90;;;;;;5067870;28;20104;-81
2020/12/09 08:45:29;;;;;;;159.93;58.83;;;-2.50;99.90;;;;;;5068035;28;20029;-81
2020/12/09 08:47:55;;;;;;;122.32;44.30;;;-2.50;99.90;;;;;;5052466;28;20507;-81
2020/12/09 08:50:21;;;;;;;91.40;34.50;;;-2.40;99.90;;;;;;5059998;28;20052;-81
2020/12/09 08:52:47;;;;;;;92.03;35.25;;;-2.40;99.90;;;;;;5067595;28;20024;-81
2020/12/09 08:55:13;;;;;;;87.18;30.42;;;-2.50;99.90;;;;;;5061230;28;20107;-81
2020/12/09 08:57:39;;;;;;;96.40;38.25;;;-2.50;99.90;;;;;;5062612;28;20497;-80
2020/12/09 09:00:06;;;;;;;107.47;37.72;;;-2.50;99.90;;;;;;5062146;28;20056;-81
2020/12/09 09:02:33;;;;;;;99.85;32.67;;;-2.50;99.90;;;;;;5063704;28;20034;-81
2020/12/09 09:04:59;;;;;;;91.43;35.88;;;-2.50;99.90;;;;;;5063379;28;20028;-80
2020/12/09 09:07:26;;;;;;;62.90;25.83;;;-2.50;99.90;;;;;;5057827;28;20021;-81
2020/12/09 09:09:53;;;;;;;77.30;27.70;;;-2.50;99.90;;;;;;5051959;28;20048;-81
2020/12/09 09:12:19;;;;;;;124.55;47.03;;;-2.50;99.90;;;;;;5065981;28;20078;-81
2020/12/09 09:14:44;;;;;;;108.63;34.42;;;-2.50;99.90;;;;;;5050793;28;20032;-80
2020/12/09 09:17:10;;;;;;;92.22;31.85;;;-2.40;99.90;;;;;;5052028;28;20025;-83
2020/12/09 09:19:36;;;;;;;95.85;33.50;;;-2.40;99.90;;;;;;5051104;28;20114;-80
2020/12/09 09:22:02;;;;;;;75.13;28.48;;;-2.50;99.90;;;;;;5058437;28;20050;-81
2020/12/09 09:24:27;;;;;;;94.93;30.73;;;-2.40;99.90;;;;;;5071629;28;20404;-80
2020/12/09 09:26:53;;;;;;;76.45;26.40;;;-2.40;99.90;;;;;;5071741;28;20029;-80
2020/12/09 09:29:18;;;;;;;56.05;21.45;;;-2.40;99.90;;;;;;5071725;28;20234;-81
2020/12/09 09:31:44;;;;;;;50.10;18.80;;;-2.50;99.90;;;;;;5071623;28;20025;-80
2020/12/09 09:34:10;;;;;;;61.40;22.17;;;-2.50;99.90;;;;;;5071675;28;20078;-80
2020/12/09 09:36:36;;;;;;;80.88;25.55;;;-2.50;99.90;;;;;;5073066;28;20028;-80
2020/12/09 09:39:03;;;;;;;72.18;28.10;;;-2.50;99.90;;;;;;5072882;28;20482;-80
2020/12/09 09:41:29;;;;;;;52.58;20.73;;;-2.50;99.90;;;;;;5071013;28;20036;-81
2020/12/09 09:43:54;;;;;;;50.92;19.38;;;-2.50;99.90;;;;;;5067768;28;20017;-81
2020/12/09 09:46:24;;;;;;;40.15;14.30;;;-2.50;99.90;;;;;;5068173;28;20413;-81
2020/12/09 09:48:49;;;;;;;40.95;15.98;;;-2.50;99.90;;;;;;5068319;28;20382;-80
2020/12/09 09:51:16;;;;;;;54.42;18.08;;;-2.50;99.90;;;;;;5072361;28;20098;-80
2020/12/09 09:53:41;;;;;;;60.05;23.42;;;-2.50;99.90;;;;;;5054582;28;20017;-80
2020/12/09 09:56:08;;;;;;;116.40;46.00;;;-2.40;99.90;;;;;;5071261;28;20367;-80
2020/12/09 09:58:33;;;;;;;142.90;50.30;;;-2.40;99.90;;;;;;5069615;28;20089;-80
2020/12/09 10:00:59;;;;;;;98.03;33.30;;;-2.40;99.90;;;;;;5067439;28;20087;-80
2020/12/09 10:03:25;;;;;;;285.45;90.53;;;-2.40;99.90;;;;;;5063980;28;20538;-80
2020/12/09 10:05:55;;;;;;;212.02;66.45;;;-2.40;99.90;;;;;;5067122;28;20115;-80
2020/12/09 10:08:22;;;;;;;130.30;45.40;;;-2.40;99.90;;;;;;5058591;28;20134;-80
2020/12/09 10:10:48;;;;;;;185.23;56.00;;;-2.40;99.90;;;;;;5071158;28;20020;-81
2020/12/09 10:13:13;;;;;;;228.60;69.90;;;-2.40;99.90;;;;;;5068624;28;20024;-80
2020/12/09 10:15:39;;;;;;;201.13;62.22;;;-2.40;99.90;;;;;;5071223;28;20028;-80
2020/12/09 10:18:05;;;;;;;282.38;81.30;;;-2.40;99.90;;;;;;5054137;28;20032;-80
2020/12/09 10:20:32;;;;;;;159.52;45.47;;;-2.40;99.90;;;;;;5071139;28;20035;-80
2020/12/09 10:22:58;;;;;;;107.53;34.28;;;-2.40;99.90;;;;;;5070991;28;20029;-80
2020/12/09 10:25:24;;;;;;;231.25;60.55;;;-2.30;99.90;;;;;;5070687;28;20025;-81
2020/12/09 10:27:50;;;;;;;147.63;42.13;;;-2.30;99.90;;;;;;5072237;28;20031;-79
2020/12/09 10:30:17;;;;;;;57.05;23.48;;;-2.40;99.90;;;;;;5069671;28;20052;-79
2020/12/09 10:32:46;;;;;;;115.43;35.28;;;-2.40;99.90;;;;;;5052111;28;20120;-80
2020/12/09 10:35:12;;;;;;;94.35;30.33;;;-2.30;99.90;;;;;;5053861;28;20021;-79
2020/12/09 10:37:38;;;;;;;72.22;25.45;;;-2.40;99.90;;;;;;5067282;28;20078;-79
2020/12/09 10:40:06;;;;;;;83.65;28.05;;;-2.40;99.90;;;;;;5071944;28;20393;-79
2020/12/09 10:42:32;;;;;;;128.70;43.85;;;-2.40;99.90;;;;;;5075278;28;20020;-80
2020/12/09 10:44:58;;;;;;;87.85;31.45;;;-2.40;99.90;;;;;;5075648;28;20445;-79
2020/12/09 10:47:24;;;;;;;90.35;32.67;;;-2.30;99.90;;;;;;5070608;28;20056;-81
2020/12/09 10:49:50;;;;;;;49.80;19.63;;;-2.40;99.90;;;;;;5074307;28;20070;-80
2020/12/09 10:52:16;;;;;;;60.95;23.20;;;-2.40;99.90;;;;;;5071016;28;20033;-80
2020/12/09 10:54:43;;;;;;;90.78;33.42;;;-2.40;99.90;;;;;;5074830;28;20382;-80
2020/12/09 10:57:10;;;;;;;83.68;30.63;;;-2.40;99.90;;;;;;5057332;28;20024;-80
2020/12/09 10:59:35;;;;;;;80.75;26.83;;;-2.40;99.90;;;;;;5075886;28;20048;-79
2020/12/09 11:02:01;;;;;;;54.88;23.77;;;-2.40;99.90;;;;;;5074251;28;20394;-80
2020/12/09 11:04:28;;;;;;;71.15;24.23;;;-2.40;99.90;;;;;;5074613;28;20024;-80
2020/12/09 11:06:53;;;;;;;77.15;28.45;;;-2.40;99.90;;;;;;5074263;28;20020;-80
2020/12/09 11:09:19;;;;;;;121.60;38.88;;;-2.50;99.90;;;;;;5075464;28;20099;-81
2020/12/09 11:11:47;;;;;;;332.65;99.93;;;-2.50;99.90;;;;;;5075005;28;20029;-80
2020/12/09 11:14:13;;;;;;;267.70;78.07;;;-2.50;99.90;;;;;;5075313;28;20040;-80
2020/12/09 11:16:42;;;;;;;341.60;95.10;;;-2.50;99.90;;;;;;5074060;28;20103;-80
2020/12/09 11:19:08;;;;;;;305.27;79.30;;;-2.50;99.90;;;;;;5057299;28;20082;-80
2020/12/09 11:21:34;;;;;;;112.47;35.50;;;-2.50;99.90;;;;;;5073781;28;20017;-80
2020/12/09 11:24:00;;;;;;;153.30;44.70;;;-2.50;99.90;;;;;;5074464;28;20448;-80
2020/12/09 11:26:29;;;;;;;118.47;35.83;;;-2.50;99.90;;;;;;5073374;28;20032;-80
2020/12/09 11:28:54;;;;;;;108.18;37.63;;;-2.40;99.90;;;;;;5075422;28;20063;-80
2020/12/09 11:31:22;;;;;;;63.63;22.65;;;-2.50;99.90;;;;;;5057173;28;20033;-80
2020/12/09 11:33:48;;;;;;;107.18;32.70;;;-2.50;99.90;;;;;;5073940;28;20074;-80
2020/12/09 11:36:14;;;;;;;159.32;49.00;;;-2.40;99.90;;;;;;5073774;28;20033;-80
2020/12/09 11:38:40;;;;;;;159.40;47.47;;;-2.50;99.90;;;;;;5073499;28;20585;-81
2020/12/09 11:41:05;;;;;;;192.00;56.45;;;-2.50;99.90;;;;;;5073870;28;20021;-80
2020/12/09 11:43:31;;;;;;;87.43;29.35;;;-2.50;99.90;;;;;;5067088;28;20112;-81
2020/12/09 11:45:57;;;;;;;86.78;26.25;;;-2.50;99.90;;;;;;5066876;28;20025;-80
2020/12/09 11:48:25;;;;;;;103.05;31.10;;;-2.50;99.90;;;;;;5059176;28;20033;-80
2020/12/09 11:50:51;;;;;;;114.85;36.83;;;-2.50;99.90;;;;;;5063040;28;20047;-81
2020/12/09 11:53:17;;;;;;;87.88;28.05;;;-2.50;99.90;;;;;;5038305;28;20029;-81
2020/12/09 11:55:42;;;;;;;155.27;52.25;;;-2.50;99.90;;;;;;5063290;28;20029;-81
2020/12/09 11:58:08;;;;;;;113.22;38.30;;;-2.50;99.90;;;;;;5053562;28;20108;-81
2020/12/09 12:00:34;;;;;;;153.55;51.00;;;-2.50;99.90;;;;;;5037516;28;20131;-80
2020/12/09 12:03:02;;;;;;;80.70;26.05;;;-2.50;99.90;;;;;;5054453;28;20029;-81
2020/12/09 12:05:29;;;;;;;68.70;27.48;;;-2.60;99.90;;;;;;5053448;28;20047;-80
2020/12/09 12:07:54;;;;;;;70.72;25.50;;;-2.60;99.90;;;;;;5053128;28;20025;-80
2020/12/09 12:10:20;;;;;;;67.90;26.42;;;-2.60;99.90;;;;;;5053052;28;20021;-80
2020/12/09 12:12:46;;;;;;;60.28;21.30;;;-2.60;99.90;;;;;;5054001;28;20059;-80
2020/12/09 12:15:11;;;;;;;69.38;28.02;;;-2.70;99.90;;;;;;5052876;28;20545;-80
2020/12/09 12:17:37;;;;;;;84.43;32.05;;;-2.60;99.90;;;;;;5057977;28;20063;-80
2020/12/09 12:20:03;;;;;;;82.57;29.55;;;-2.60;99.90;;;;;;5073952;28;20032;-80
2020/12/09 12:22:29;;;;;;;69.93;24.63;;;-2.60;99.90;;;;;;5072645;28;20036;-79
2020/12/09 12:24:55;;;;;;;74.07;29.40;;;-2.60;99.90;;;;;;5072689;28;20020;-80
2020/12/09 12:27:20;;;;;;;59.08;22.63;;;-2.70;99.90;;;;;;5072272;28;20052;-80
2020/12/09 12:29:46;;;;;;;64.93;25.27;;;-2.70;99.90;;;;;;5073884;28;20025;-80